Time;durP1;ratioP1;P1;durP2;ratioP2;P2;SDS_P1;SDS_P2;PMS_P1;PMS_P2;Temp;Humidity;BMP_temperature;BMP_pressure;BME280_temperature;BME280_humidity;BME280_pressure;Samples;Min_cycle;Max_cycle;Signal;HPM_P1;HPM_P2
2022/08/26 00:05:46;;;;;;;29.90;21.63;;;15.50;99.90;;;;;;20487200;29;20039;-48
2022/08/26 00:15:50;;;;;;;26.00;19.88;;;15.30;99.90;;;;;;20486674;29;20083;-49
2022/08/26 00:25:53;;;;;;;30.38;19.98;;;15.20;99.90;;;;;;20485739;29;20043;-49
2022/08/26 00:35:56;;;;;;;25.95;20.20;;;15.00;99.90;;;;;;20501181;29;20039;-48
2022/08/26 00:46:38;;;;;;;27.17;20.52;;;14.90;99.90;;;;;;20484415;29;20559;-50
2022/08/26 00:56:56;;;;;;;26.60;20.23;;;14.80;99.90;;;;;;20239852;29;20132;-48
2022/08/26 01:06:59;;;;;;;24.33;18.90;;;14.80;99.90;;;;;;20304225;29;20103;-60
2022/08/26 01:17:05;;;;;;;24.23;18.40;;;14.80;99.90;;;;;;20316556;29;20052;-60
2022/08/26 01:27:09;;;;;;;24.40;18.92;;;14.70;99.90;;;;;;20406286;29;20071;-60
2022/08/26 01:37:19;;;;;;;26.58;18.42;;;14.60;99.90;;;;;;20509955;28;20102;-60
2022/08/26 01:47:26;;;;;;;23.25;17.90;;;14.60;99.90;;;;;;20481150;29;20043;-48
2022/08/26 01:57:30;;;;;;;22.17;17.33;;;14.50;99.90;;;;;;20481272;29;20055;-52
2022/08/26 02:07:33;;;;;;;22.45;16.92;;;14.50;99.90;;;;;;20417928;29;20529;-60
2022/08/26 02:17:43;;;;;;;21.67;15.45;;;14.40;99.90;;;;;;20446093;29;20051;-60
2022/08/26 02:27:46;;;;;;;23.02;16.98;;;14.30;99.90;;;;;;20494066;29;20043;-48
2022/08/26 02:37:51;;;;;;;21.55;16.75;;;14.30;99.90;;;;;;20500528;29;20047;-48
2022/08/26 02:47:56;;;;;;;22.40;17.13;;;14.30;99.90;;;;;;20492481;29;20069;-61
2022/08/26 02:58:00;;;;;;;19.52;15.35;;;14.20;99.90;;;;;;20492703;29;20035;-48
2022/08/26 03:08:03;;;;;;;17.80;12.98;;;14.20;99.90;;;;;;20428894;29;20090;-59
2022/08/26 03:18:06;;;;;;;21.00;17.38;;;14.00;99.90;;;;;;20445968;29;20055;-60
2022/08/26 03:28:09;;;;;;;17.38;12.77;;;14.10;99.90;;;;;;20473604;29;20386;-47
2022/08/26 03:38:11;;;;;;;17.65;13.32;;;13.90;99.90;;;;;;20505462;29;20133;-59
2022/08/26 03:48:15;;;;;;;14.95;11.68;;;14.00;99.90;;;;;;20488654;29;20043;-55
2022/08/26 03:58:17;;;;;;;15.90;12.38;;;13.90;99.90;;;;;;20487821;29;20043;-46
2022/08/26 04:08:20;;;;;;;16.27;13.35;;;13.80;99.90;;;;;;20487998;29;20039;-60
2022/08/26 04:18:23;;;;;;;16.27;13.00;;;13.70;99.90;;;;;;20486516;29;20082;-59
2022/08/26 04:28:26;;;;;;;21.65;16.58;;;13.70;99.90;;;;;;20485703;29;20134;-60
2022/08/26 04:38:29;;;;;;;11.88;9.43;;;13.80;99.90;;;;;;20486165;29;20098;-59
2022/08/26 04:48:33;;;;;;;14.05;11.75;;;13.80;99.90;;;;;;20484424;29;20441;-47
2022/08/26 04:58:36;;;;;;;21.50;16.05;;;14.10;99.90;;;;;;20483992;29;20505;-59
2022/08/26 05:08:38;;;;;;;23.40;17.52;;;14.20;99.90;;;;;;20483328;29;20039;-50
2022/08/26 05:18:43;;;;;;;19.67;16.92;;;14.30;99.90;;;;;;20482654;29;20338;-52
2022/08/26 05:28:45;;;;;;;20.67;16.08;;;14.60;99.90;;;;;;20483091;29;20046;-49
2022/08/26 05:38:49;;;;;;;20.77;16.25;;;14.70;99.90;;;;;;20466374;29;20393;-60
2022/08/26 05:48:53;;;;;;;20.35;17.30;;;15.00;99.90;;;;;;20478061;28;20047;-60
2022/08/26 05:58:56;;;;;;;22.73;17.85;;;15.10;99.90;;;;;;20496977;29;20031;-60
2022/08/26 06:09:01;;;;;;;21.40;16.95;;;15.20;99.90;;;;;;20496567;29;20102;-47
2022/08/26 06:19:06;;;;;;;16.25;13.13;;;15.30;99.90;;;;;;20495833;29;20078;-60
2022/08/26 06:29:08;;;;;;;13.75;10.82;;;15.40;99.90;;;;;;20494284;29;20035;-60
2022/08/26 06:39:13;;;;;;;12.07;8.18;;;15.80;99.90;;;;;;20494279;29;20039;-60
2022/08/26 06:49:16;;;;;;;9.63;7.53;;;17.40;99.90;;;;;;20452276;28;20099;-61
2022/08/26 06:59:21;;;;;;;7.63;6.32;;;19.00;99.90;;;;;;20417369;29;20114;-51
2022/08/26 07:09:27;;;;;;;6.10;5.40;;;20.60;99.90;;;;;;20491914;29;20035;-62
2022/08/26 07:19:29;;;;;;;8.27;6.88;;;21.90;99.90;;;;;;20506702;29;20405;-52
2022/08/26 07:29:33;;;;;;;7.07;6.03;;;22.60;99.90;;;;;;20489793;29;20110;-53
2022/08/26 07:39:36;;;;;;;6.25;5.28;;;23.00;99.90;;;;;;20490183;29;20405;-62
2022/08/26 07:49:39;;;;;;;7.13;6.28;;;24.10;99.90;;;;;;20488526;29;20066;-51
2022/08/26 07:59:42;;;;;;;7.35;6.03;;;24.60;99.90;;;;;;20487769;29;20031;-49
2022/08/26 08:09:48;;;;;;;5.97;5.25;;;24.80;99.90;;;;;;20488046;28;20086;-62
2022/08/26 08:19:50;;;;;;;5.32;4.80;;;25.20;99.90;;;;;;20486372;29;20419;-62
2022/08/26 08:29:53;;;;;;;6.35;4.70;;;25.40;99.90;;;;;;20485717;29;20063;-50
2022/08/26 08:39:56;;;;;;;5.80;4.50;;;25.50;99.40;;;;;;20469250;29;20031;-62
2022/08/26 08:50:10;;;;;;;4.50;4.05;;;25.40;97.70;;;;;;20484347;29;20043;-50
2022/08/26 09:00:17;;;;;;;6.70;4.45;;;25.60;98.70;;;;;;20483863;29;20407;-62
2022/08/26 09:10:29;;;;;;;5.00;4.60;;;25.70;99.80;;;;;;20483379;29;20098;-62
2022/08/26 09:20:38;;;;;;;5.50;5.00;;;25.50;99.60;;;;;;20481720;28;20532;-50
2022/08/26 09:30:41;;;;;;;4.53;4.13;;;25.20;99.60;;;;;;20484958;29;20043;-61
2022/08/26 09:40:58;;;;;;;4.70;4.30;;;25.50;99.90;;;;;;20481840;29;20441;-48
2022/08/26 09:51:04;;;;;;;4.73;4.20;;;26.20;99.90;;;;;;20497520;29;20625;-52
2022/08/26 10:01:22;;;;;;;5.18;3.53;;;26.80;97.80;;;;;;20497231;29;20298;-52
2022/08/26 10:11:32;;;;;;;;;;;27.10;98.00;;;;;;20481389;29;20093;-52
2022/08/26 10:21:44;;;;;;;5.35;4.85;;;27.10;96.40;;;;;;20496280;29;19919;-52
2022/08/26 10:31:57;;;;;;;7.40;4.60;;;26.50;98.40;;;;;;20495302;28;20560;-51
2022/08/26 10:42:06;;;;;;;5.72;5.05;;;26.60;97.30;;;;;;20509865;29;20130;-52
2022/08/26 10:52:20;;;;;;;7.20;6.50;;;25.70;97.30;;;;;;20491801;29;20047;-61
2022/08/26 11:02:31;;;;;;;10.70;6.95;;;24.00;98.10;;;;;;20491922;29;20043;-48
2022/08/26 11:12:34;;;;;;;7.78;6.93;;;24.20;99.90;;;;;;20491022;29;20043;-48
2022/08/26 11:22:38;;;;;;;8.48;7.10;;;24.80;99.90;;;;;;20489891;29;20083;-60
2022/08/26 11:32:40;;;;;;;8.75;7.68;;;24.90;99.90;;;;;;20505709;29;20465;-57
2022/08/26 11:42:50;;;;;;;9.93;7.65;;;24.10;99.90;;;;;;20488431;28;20043;-52
2022/08/26 11:53:03;;;;;;;12.65;10.50;;;23.80;99.90;;;;;;20408908;29;20043;-49
2022/08/26 12:03:07;;;;;;;11.82;9.23;;;23.70;99.90;;;;;;20444358;29;20051;-53
2022/08/26 12:13:21;;;;;;;11.13;8.93;;;24.50;99.90;;;;;;20486920;28;20050;-51
2022/08/26 12:23:24;;;;;;;12.32;8.60;;;26.00;99.90;;;;;;20485809;29;20067;-52
2022/08/26 12:33:27;;;;;;;8.25;7.25;;;26.90;99.90;;;;;;20517313;28;20102;-52
2022/08/26 12:43:39;;;;;;;9.68;8.10;;;26.70;98.80;;;;;;20485191;29;20083;-51
2022/08/26 12:53:43;;;;;;;14.75;9.63;;;27.00;99.90;;;;;;20498742;28;20109;-51
2022/08/26 13:03:46;;;;;;;10.15;8.90;;;27.80;97.70;;;;;;20467147;29;20047;-54
2022/08/26 13:14:23;;;;;;;10.18;8.30;;;26.90;98.60;;;;;;20497741;28;20051;-51
2022/08/26 13:24:37;;;;;;;7.15;6.45;;;27.70;98.20;;;;;;20331199;29;20043;-53
2022/08/26 13:34:40;;;;;;;10.10;7.70;;;28.70;97.10;;;;;;20347118;29;20044;-54
2022/08/26 13:44:43;;;;;;;10.80;8.60;;;28.60;96.80;;;;;;20314930;29;20104;-51
2022/08/26 13:54:46;;;;;;;8.90;7.68;;;28.10;95.60;;;;;;20361718;29;20063;-60
2022/08/26 14:04:49;;;;;;;12.38;8.35;;;28.00;96.90;;;;;;20468243;28;20051;-62
2022/08/26 14:14:51;;;;;;;8.18;6.55;;;26.70;95.80;;;;;;20511439;28;20048;-51
2022/08/26 14:24:55;;;;;;;7.93;6.90;;;26.10;97.90;;;;;;20471912;28;20043;-62
2022/08/26 14:34:58;;;;;;;7.13;6.38;;;25.50;99.00;;;;;;20510321;29;20077;-50
2022/08/26 14:45:04;;;;;;;7.60;6.80;;;26.60;97.20;;;;;;20433873;28;20099;-62
2022/08/26 14:55:08;;;;;;;10.57;7.03;;;27.40;96.00;;;;;;20417969;28;20039;-53
2022/08/26 15:05:12;;;;;;;10.73;7.13;;;26.80;97.30;;;;;;20465040;29;20390;-49
2022/08/26 15:15:17;;;;;;;7.35;6.50;;;26.20;97.30;;;;;;20490350;28;20035;-61
2022/08/26 15:25:22;;;;;;;7.10;6.40;;;25.50;98.20;;;;;;20506998;29;20040;-49
2022/08/26 15:35:24;;;;;;;8.27;7.20;;;25.00;98.40;;;;;;20522183;28;20102;-49
2022/08/26 15:45:27;;;;;;;7.50;6.65;;;24.10;99.00;;;;;;20488436;29;20051;-47
2022/08/26 15:55:29;;;;;;;12.30;8.10;;;23.30;99.90;;;;;;20488459;29;20051;-60
2022/08/26 16:05:38;;;;;;;14.98;8.32;;;22.80;99.90;;;;;;20486505;29;20098;-64
2022/08/26 16:15:40;;;;;;;7.37;4.27;;;20.80;99.90;;;;;;20502625;29;20196;-63
2022/08/26 16:25:44;;;;;;;5.47;3.38;;;18.70;99.90;;;;;;20486304;29;20413;-63
2022/08/26 16:35:47;;;;;;;5.43;4.40;;;17.60;99.90;;;;;;20516410;28;20110;-52
2022/08/26 16:45:49;;;;;;;13.20;9.57;;;16.90;99.90;;;;;;20484891;29;20453;-49
2022/08/26 16:55:52;;;;;;;15.63;12.45;;;16.90;99.90;;;;;;20484306;29;20043;-48
2022/08/26 17:05:54;;;;;;;20.35;16.42;;;16.90;99.90;;;;;;20482619;29;20053;-52
2022/08/26 17:15:57;;;;;;;39.55;27.15;;;16.70;99.90;;;;;;20482843;28;20058;-49
2022/08/26 17:26:03;;;;;;;38.67;27.63;;;16.50;99.90;;;;;;20483011;29;20051;-49
2022/08/26 17:36:08;;;;;;;32.10;24.60;;;16.40;99.90;;;;;;20498096;29;20039;-49
2022/08/26 17:46:11;;;;;;;36.50;25.85;;;16.40;99.90;;;;;;20494987;29;20097;-49
2022/08/26 17:56:17;;;;;;;36.05;27.35;;;16.30;99.90;;;;;;20497603;29;20110;-49
2022/08/26 18:06:20;;;;;;;37.10;26.00;;;16.20;99.90;;;;;;20496718;29;20066;-59
2022/08/26 18:16:23;;;;;;;35.58;25.67;;;16.10;99.90;;;;;;20479683;28;20571;-48
2022/08/26 18:26:30;;;;;;;34.90;24.30;;;15.90;99.90;;;;;;20495135;29;20106;-48
2022/08/26 18:36:35;;;;;;;35.35;24.63;;;15.60;99.90;;;;;;20510313;29;20039;-61
2022/08/26 18:46:39;;;;;;;32.53;24.70;;;15.40;99.90;;;;;;20493452;29;20039;-51
2022/08/26 18:56:42;;;;;;;45.35;31.02;;;15.30;99.90;;;;;;20491933;28;20039;-53
2022/08/26 19:06:48;;;;;;;46.45;31.75;;;15.20;99.90;;;;;;20429664;29;20107;-49
2022/08/26 19:16:52;;;;;;;43.83;30.52;;;15.10;99.90;;;;;;20437025;29;20044;-51
2022/08/26 19:26:58;;;;;;;29.58;23.08;;;15.00;99.90;;;;;;20507216;29;20051;-51
2022/08/26 19:37:02;;;;;;;25.48;19.65;;;15.00;99.90;;;;;;20505927;29;20039;-51
2022/08/26 19:47:08;;;;;;;30.02;22.90;;;14.90;99.90;;;;;;20489233;29;20035;-53
2022/08/26 19:57:11;;;;;;;47.15;31.80;;;14.90;99.90;;;;;;20488643;29;20448;-61
2022/08/26 20:07:14;;;;;;;37.60;25.88;;;14.90;99.90;;;;;;20425018;29;20035;-53
2022/08/26 20:17:17;;;;;;;32.40;23.35;;;14.90;99.90;;;;;;20436411;29;20102;-51
2022/08/26 20:27:26;;;;;;;23.90;17.85;;;14.80;99.90;;;;;;20486242;29;20047;-52
2022/08/26 20:37:29;;;;;;;22.48;16.08;;;14.70;99.90;;;;;;20502908;29;20078;-60
2022/08/26 20:47:32;;;;;;;22.33;16.58;;;14.50;99.90;;;;;;20484821;29;20039;-60
2022/08/26 20:57:36;;;;;;;21.33;16.33;;;14.40;99.90;;;;;;20485575;29;20043;-60
2022/08/26 21:07:39;;;;;;;29.10;21.42;;;14.30;99.90;;;;;;20484414;29;20110;-51
2022/08/26 21:17:41;;;;;;;35.72;26.23;;;14.20;99.90;;;;;;20482483;28;20134;-51
2022/08/26 21:27:45;;;;;;;45.10;31.27;;;14.20;99.90;;;;;;20482452;29;20568;-49
2022/08/26 21:37:47;;;;;;;23.00;17.45;;;14.30;99.90;;;;;;20489601;29;20177;-59
2022/08/26 21:47:50;;;;;;;49.88;32.97;;;14.20;99.90;;;;;;20481458;29;20477;-53
2022/08/26 21:57:52;;;;;;;33.88;24.33;;;14.30;99.90;;;;;;20481304;29;20393;-59
2022/08/26 22:07:55;;;;;;;37.17;25.92;;;14.40;99.90;;;;;;20418541;29;20035;-55
2022/08/26 22:17:58;;;;;;;39.45;26.05;;;14.60;99.90;;;;;;20434707;28;20413;-51
2022/08/26 22:28:02;;;;;;;37.53;23.70;;;14.40;99.90;;;;;;20486319;28;20103;-52
2022/08/26 22:38:04;;;;;;;21.80;17.55;;;14.40;99.90;;;;;;20515671;28;20035;-52
2022/08/26 22:48:19;;;;;;;20.95;15.55;;;14.30;99.90;;;;;;20493838;29;20063;-59
2022/08/26 22:58:22;;;;;;;11.68;9.90;;;14.10;99.90;;;;;;20494487;29;20051;-59
2022/08/26 23:08:26;;;;;;;19.60;14.77;;;14.10;99.90;;;;;;20398819;29;20091;-59
2022/08/26 23:18:29;;;;;;;17.05;14.32;;;14.10;99.90;;;;;;20450027;29;20047;-53
2022/08/26 23:28:33;;;;;;;25.63;19.33;;;14.10;99.90;;;;;;20491012;29;20075;-53
2022/08/26 23:38:36;;;;;;;28.00;20.45;;;14.00;99.90;;;;;;20490668;28;20090;-52
2022/08/26 23:48:39;;;;;;;29.95;23.02;;;14.00;99.90;;;;;;20473560;29;20097;-51
2022/08/26 23:58:43;;;;;;;34.25;23.85;;;14.10;99.90;;;;;;20488668;29;20031;-57
